Time;durP1;ratioP1;P1;durP2;ratioP2;P2;SDS_P1;SDS_P2;PMS_P1;PMS_P2;Temp;Humidity;BMP_temperature;BMP_pressure;BME280_temperature;BME280_humidity;BME280_pressure;Samples;Min_cycle;Max_cycle;Signal;HPM_P1;HPM_P2
2023/05/24 00:00:40;;;;;;;16.27;5.78;;;7.70;99.90;;;;;;5021859;28;89012;-33
2023/05/24 00:03:06;;;;;;;10.05;4.28;;;7.70;99.90;;;;;;5020967;28;90486;-35
2023/05/24 00:05:32;;;;;;;9.95;4.88;;;7.70;99.90;;;;;;5021896;28;89692;-35
2023/05/24 00:07:58;;;;;;;14.88;6.18;;;7.70;99.90;;;;;;5022227;28;90579;-33
2023/05/24 00:10:25;;;;;;;7.97;4.60;;;7.60;99.90;;;;;;5021356;28;89240;-35
2023/05/24 00:12:50;;;;;;;9.32;4.60;;;7.60;99.90;;;;;;5022406;28;89719;-31
2023/05/24 00:15:16;;;;;;;12.82;5.28;;;7.60;99.90;;;;;;5002861;28;89731;-31
2023/05/24 00:17:42;;;;;;;16.08;4.72;;;7.60;99.90;;;;;;5021386;28;89756;-31
2023/05/24 00:20:13;;;;;;;10.63;5.13;;;7.50;99.90;;;;;;5020443;28;89941;-32
2023/05/24 00:22:39;;;;;;;7.22;3.85;;;7.60;99.90;;;;;;5021617;28;89717;-33
2023/05/24 00:25:06;;;;;;;15.40;4.57;;;7.50;99.90;;;;;;5021521;28;88925;-30
2023/05/24 00:27:32;;;;;;;15.15;5.97;;;7.50;99.90;;;;;;5021923;28;90676;-32
2023/05/24 00:29:57;;;;;;;13.68;4.68;;;7.50;99.90;;;;;;5021759;28;88344;-31
2023/05/24 00:32:23;;;;;;;9.70;5.00;;;7.50;99.90;;;;;;5021042;28;90124;-31
2023/05/24 00:34:49;;;;;;;9.88;5.38;;;7.50;99.90;;;;;;5021875;28;89953;-31
2023/05/24 00:37:14;;;;;;;15.25;6.40;;;7.50;99.90;;;;;;5021199;28;89562;-32
2023/05/24 00:39:40;;;;;;;18.15;5.57;;;7.40;99.90;;;;;;5021637;28;89837;-32
2023/05/24 00:42:06;;;;;;;14.05;4.85;;;7.40;99.90;;;;;;5020593;28;90019;-35
2023/05/24 00:44:32;;;;;;;21.63;6.53;;;7.40;99.90;;;;;;5020597;28;90223;-35
2023/05/24 00:46:58;;;;;;;12.15;6.50;;;7.40;99.90;;;;;;5020814;28;90476;-33
2023/05/24 00:49:24;;;;;;;13.48;5.05;;;7.40;99.90;;;;;;5020803;27;89961;-31
2023/05/24 00:51:51;;;;;;;12.73;5.40;;;7.40;99.90;;;;;;5020652;28;90420;-32
2023/05/24 00:54:17;;;;;;;14.05;5.47;;;7.50;99.90;;;;;;5020389;28;89864;-33
2023/05/24 00:56:43;;;;;;;13.73;4.95;;;7.40;99.90;;;;;;5020156;28;89522;-35
2023/05/24 00:59:09;;;;;;;17.25;6.15;;;7.40;99.90;;;;;;5021162;28;89307;-35
2023/05/24 01:01:36;;;;;;;13.15;5.43;;;7.30;99.90;;;;;;5021048;28;90973;-34
2023/05/24 01:04:02;;;;;;;13.30;6.03;;;7.30;99.90;;;;;;5020564;28;89761;-31
2023/05/24 01:06:28;;;;;;;14.38;5.45;;;7.40;99.90;;;;;;5020516;28;89673;-30
2023/05/24 01:09:01;;;;;;;18.05;5.28;;;7.30;99.90;;;;;;5020576;28;90398;-35
2023/05/24 01:11:36;;;;;;;11.95;6.00;;;7.30;99.90;;;;;;5020890;28;90385;-35
2023/05/24 01:14:20;;;;;;;17.90;7.20;;;7.30;99.90;;;;;;5020844;28;89690;-30
2023/05/24 01:17:13;;;;;;;18.80;6.40;;;7.30;99.90;;;;;;5020098;28;89733;-34
2023/05/24 01:19:45;;;;;;;10.63;4.75;;;7.30;99.90;;;;;;5019930;28;88549;-32
2023/05/24 01:22:30;;;;;;;14.43;7.15;;;7.20;99.90;;;;;;5020003;28;90793;-32
2023/05/24 01:25:06;;;;;;;12.48;5.30;;;7.20;99.90;;;;;;5020354;28;90466;-32
2023/05/24 01:27:34;;;;;;;18.58;6.88;;;7.20;99.90;;;;;;5020961;28;90505;-34
2023/05/24 01:30:01;;;;;;;12.43;6.85;;;7.20;99.90;;;;;;5020427;28;88562;-34
2023/05/24 01:32:27;;;;;;;12.85;4.93;;;7.10;99.90;;;;;;5019656;28;90212;-32
2023/05/24 01:34:53;;;;;;;13.95;7.43;;;7.10;99.90;;;;;;5001923;28;92144;-34
2023/05/24 01:37:18;;;;;;;18.38;8.38;;;7.10;99.90;;;;;;5020436;28;90180;-33
2023/05/24 01:39:44;;;;;;;13.60;6.53;;;7.10;99.90;;;;;;5020476;28;90468;-31
2023/05/24 01:42:41;;;;;;;17.15;6.75;;;7.10;99.90;;;;;;5020279;28;90165;-31
2023/05/24 01:45:18;;;;;;;17.05;6.20;;;7.10;99.90;;;;;;5020167;28;89552;-34
2023/05/24 01:48:17;;;;;;;18.55;6.93;;;7.10;99.90;;;;;;5020526;28;90408;-32
2023/05/24 01:50:47;;;;;;;22.05;8.98;;;7.10;99.90;;;;;;5020991;28;90139;-34
2023/05/24 01:53:18;;;;;;;17.63;5.65;;;7.10;99.90;;;;;;5019905;28;89115;-35
2023/05/24 01:55:46;;;;;;;21.83;7.25;;;7.10;99.90;;;;;;5020465;28;90046;-36
2023/05/24 01:58:14;;;;;;;12.05;6.25;;;7.10;99.90;;;;;;5019924;28;89142;-35
2023/05/24 02:00:41;;;;;;;10.98;5.28;;;7.10;99.90;;;;;;5019054;27;88086;-32
2023/05/24 02:03:06;;;;;;;13.98;5.55;;;7.10;99.90;;;;;;5019419;28;90321;-34
2023/05/24 02:05:32;;;;;;;15.73;6.57;;;7.20;99.90;;;;;;5020609;28;89614;-33
2023/05/24 02:07:58;;;;;;;20.33;7.35;;;7.20;99.90;;;;;;5019846;28;90676;-32
2023/05/24 02:10:23;;;;;;;11.98;7.47;;;7.20;99.90;;;;;;5019820;28;88667;-36
2023/05/24 02:12:49;;;;;;;12.18;6.43;;;7.20;99.90;;;;;;5019936;28;90206;-32
2023/05/24 02:15:15;;;;;;;16.77;5.45;;;7.20;99.90;;;;;;5019689;28;89700;-36
2023/05/24 02:17:42;;;;;;;16.75;5.13;;;7.20;99.90;;;;;;5019873;28;89995;-31
2023/05/24 02:20:08;;;;;;;12.90;6.05;;;7.10;99.90;;;;;;5019339;28;89583;-32
2023/05/24 02:22:34;;;;;;;14.15;6.22;;;7.20;99.90;;;;;;5019664;28;90055;-32
2023/05/24 02:25:00;;;;;;;14.82;5.13;;;7.20;99.90;;;;;;5019282;28;90944;-31
2023/05/24 02:27:25;;;;;;;14.00;7.10;;;7.20;99.90;;;;;;5019733;28;90256;-30
2023/05/24 02:29:51;;;;;;;24.70;7.50;;;7.20;99.90;;;;;;5020425;28;88469;-33
2023/05/24 02:32:17;;;;;;;15.55;7.07;;;7.20;99.90;;;;;;5018362;28;90624;-32
2023/05/24 02:34:43;;;;;;;12.77;5.93;;;7.30;99.90;;;;;;5019757;28;90204;-35
2023/05/24 02:37:13;;;;;;;13.68;5.90;;;7.30;99.90;;;;;;5019060;28;89797;-32
2023/05/24 02:39:40;;;;;;;11.20;6.50;;;7.30;99.90;;;;;;5020316;28;89300;-35
2023/05/24 02:42:07;;;;;;;38.75;6.65;;;7.40;99.90;;;;;;5018406;28;90406;-36
2023/05/24 02:44:33;;;;;;;13.77;5.82;;;7.40;99.90;;;;;;5018605;28;89114;-34
2023/05/24 02:46:59;;;;;;;11.15;6.25;;;7.40;99.90;;;;;;5019753;28;89651;-35
2023/05/24 02:49:24;;;;;;;15.32;5.90;;;7.40;99.90;;;;;;5018704;28;89076;-35
2023/05/24 02:51:50;;;;;;;15.75;6.38;;;7.30;99.90;;;;;;5019031;28;90436;-32
2023/05/24 02:54:16;;;;;;;15.95;6.20;;;7.30;99.90;;;;;;5019226;28;91308;-31
2023/05/24 02:56:42;;;;;;;14.82;6.28;;;7.30;99.90;;;;;;5019066;28;88715;-30
2023/05/24 02:59:07;;;;;;;17.52;7.20;;;7.30;99.90;;;;;;5019295;28;90129;-32
2023/05/24 03:01:33;;;;;;;10.65;6.35;;;7.30;99.90;;;;;;5018328;28;89675;-32
2023/05/24 03:03:58;;;;;;;12.57;6.45;;;7.30;99.90;;;;;;5019987;28;89688;-34
2023/05/24 03:06:24;;;;;;;14.82;6.30;;;7.20;99.90;;;;;;5018756;28;89619;-31
2023/05/24 03:08:50;;;;;;;10.10;5.97;;;7.20;99.90;;;;;;5019776;28;90443;-31
2023/05/24 03:11:18;;;;;;;13.68;5.22;;;7.20;99.90;;;;;;5019023;28;90535;-32
2023/05/24 03:13:43;;;;;;;15.20;6.40;;;7.10;99.90;;;;;;5020861;27;90413;-34
2023/05/24 03:16:09;;;;;;;19.17;5.60;;;7.10;99.90;;;;;;5022746;28;91058;-31
2023/05/24 03:18:34;;;;;;;11.50;6.60;;;7.10;99.90;;;;;;5023212;28;88983;-33
2023/05/24 03:21:00;;;;;;;18.58;7.18;;;7.10;99.90;;;;;;5022087;28;90283;-31
2023/05/24 03:23:26;;;;;;;16.58;7.18;;;7.10;99.90;;;;;;5023121;28;89871;-33
2023/05/24 03:25:52;;;;;;;11.77;5.43;;;7.10;99.90;;;;;;5003864;28;89905;-30
2023/05/24 03:28:17;;;;;;;16.42;6.28;;;7.20;99.90;;;;;;5022508;28;88287;-31
2023/05/24 03:30:43;;;;;;;15.88;7.28;;;7.10;99.90;;;;;;5022314;28;88659;-31
2023/05/24 03:33:09;;;;;;;10.20;6.22;;;7.20;99.90;;;;;;5021446;28;89828;-36
2023/05/24 03:35:34;;;;;;;10.38;4.72;;;7.30;99.90;;;;;;5022256;28;89236;-32
2023/05/24 03:38:00;;;;;;;24.08;9.20;;;7.30;99.90;;;;;;5021960;28;89929;-35
2023/05/24 03:40:31;;;;;;;14.77;5.00;;;7.30;99.90;;;;;;5023028;28;90439;-33
2023/05/24 03:42:56;;;;;;;20.48;5.82;;;7.30;99.90;;;;;;5004316;28;90105;-31
2023/05/24 03:45:22;;;;;;;18.98;5.78;;;7.30;99.90;;;;;;5021218;28;89629;-33
2023/05/24 03:47:48;;;;;;;10.85;6.28;;;7.30;99.90;;;;;;5004016;28;89514;-36
2023/05/24 03:50:13;;;;;;;13.93;5.30;;;7.30;99.90;;;;;;5021796;28;90150;-30
2023/05/24 03:52:39;;;;;;;12.85;6.25;;;7.30;99.90;;;;;;5021502;28;89382;-35
2023/05/24 03:55:05;;;;;;;16.33;5.45;;;7.40;99.90;;;;;;5022463;28;90006;-29
2023/05/24 03:57:31;;;;;;;20.73;6.00;;;7.40;99.90;;;;;;5021640;28;88420;-35
2023/05/24 03:59:56;;;;;;;14.15;6.05;;;7.40;99.90;;;;;;5022215;28;90625;-32
2023/05/24 04:02:22;;;;;;;12.90;5.18;;;7.40;99.90;;;;;;5020337;28;91679;-30
2023/05/24 04:04:47;;;;;;;9.73;5.03;;;7.50;99.90;;;;;;5021507;28;90469;-34
2023/05/24 04:07:14;;;;;;;23.40;8.48;;;7.50;99.90;;;;;;5021740;28;88584;-30
2023/05/24 04:09:40;;;;;;;17.13;7.05;;;7.60;99.90;;;;;;5022033;28;88137;-35
2023/05/24 04:12:05;;;;;;;16.90;5.57;;;7.70;99.90;;;;;;5021795;28;89988;-33
2023/05/24 04:14:31;;;;;;;22.25;7.32;;;7.70;99.90;;;;;;5021329;28;90109;-34
2023/05/24 04:16:57;;;;;;;19.60;7.60;;;7.80;99.90;;;;;;5003289;28;88445;-32
2023/05/24 04:19:23;;;;;;;11.27;4.80;;;7.80;99.90;;;;;;5055767;22;89908;-32
2023/05/24 04:21:49;;;;;;;10.20;5.82;;;7.90;99.90;;;;;;5001197;28;89658;-31
2023/05/24 04:24:15;;;;;;;12.25;4.55;;;7.90;99.90;;;;;;5001058;28;90190;-35
2023/05/24 04:26:40;;;;;;;11.20;6.10;;;8.00;99.90;;;;;;5000549;28;90106;-32
2023/05/24 04:29:06;;;;;;;13.13;5.05;;;8.10;99.90;;;;;;5001160;28;90150;-33
2023/05/24 04:31:33;;;;;;;11.32;5.22;;;8.10;99.90;;;;;;5001842;28;89381;-33
2023/05/24 04:33:58;;;;;;;15.25;5.95;;;8.20;99.90;;;;;;5001834;28;89142;-30
2023/05/24 04:36:25;;;;;;;10.93;5.53;;;8.30;99.90;;;;;;5001349;28;89623;-34
2023/05/24 04:38:52;;;;;;;14.35;5.63;;;8.30;99.90;;;;;;4983577;28;90390;-30
2023/05/24 04:41:18;;;;;;;12.68;4.38;;;8.30;99.90;;;;;;5000660;28;89843;-31
2023/05/24 04:43:44;;;;;;;14.55;5.35;;;8.40;99.90;;;;;;5001623;28;90517;-32
2023/05/24 04:46:10;;;;;;;14.88;4.68;;;8.40;99.90;;;;;;5001146;28;88418;-30
2023/05/24 04:48:35;;;;;;;14.55;4.57;;;8.50;99.90;;;;;;5001499;28;90262;-33
2023/05/24 04:51:01;;;;;;;13.02;5.72;;;8.50;99.90;;;;;;5000490;28;90640;-30
2023/05/24 04:53:27;;;;;;;17.23;5.72;;;8.60;99.90;;;;;;5000211;28;90532;-31
2023/05/24 04:55:52;;;;;;;13.55;6.00;;;8.60;99.90;;;;;;5001808;28;89619;-30
2023/05/24 04:58:18;;;;;;;19.67;5.03;;;8.70;99.90;;;;;;5000704;28;90743;-31
2023/05/24 05:00:44;;;;;;;9.90;5.28;;;8.70;99.90;;;;;;5000652;28;89916;-36
2023/05/24 05:03:10;;;;;;;28.85;5.60;;;8.80;99.90;;;;;;5000207;28;90222;-33
2023/05/24 05:05:35;;;;;;;21.92;5.95;;;8.90;99.90;;;;;;5000570;28;87856;-34
2023/05/24 05:08:02;;;;;;;12.13;6.03;;;9.00;99.90;;;;;;5001259;28;90355;-32
2023/05/24 05:10:28;;;;;;;9.40;5.53;;;9.10;99.90;;;;;;5000533;28;89886;-36
2023/05/24 05:12:54;;;;;;;17.73;7.93;;;9.20;99.90;;;;;;5000743;28;89085;-32
2023/05/24 05:15:23;;;;;;;9.25;5.57;;;9.20;99.90;;;;;;5000487;28;88909;-34
2023/05/24 05:17:49;;;;;;;9.50;4.55;;;9.30;99.90;;;;;;5000007;28;91199;-33
2023/05/24 05:20:14;;;;;;;16.58;5.43;;;9.40;99.90;;;;;;4999986;28;90143;-31
2023/05/24 05:22:49;;;;;;;14.77;5.22;;;9.40;99.90;;;;;;5001150;28;89912;-32
2023/05/24 05:25:15;;;;;;;13.98;4.80;;;9.40;99.90;;;;;;5000268;28;89106;-35
2023/05/24 05:27:40;;;;;;;12.35;4.20;;;9.50;99.90;;;;;;5000281;28;89080;-31
2023/05/24 05:30:07;;;;;;;11.20;6.00;;;9.60;99.90;;;;;;5000307;28;91041;-35
2023/05/24 05:32:32;;;;;;;8.30;3.70;;;9.60;99.90;;;;;;5000590;28;89807;-35
2023/05/24 05:34:58;;;;;;;13.93;5.68;;;9.80;99.90;;;;;;5001630;28;89140;-32
2023/05/24 05:37:24;;;;;;;16.08;6.90;;;10.10;99.90;;;;;;4998499;28;90192;-32
2023/05/24 05:39:49;;;;;;;10.15;4.15;;;10.30;99.90;;;;;;4999869;28;90101;-30
2023/05/24 05:42:15;;;;;;;12.65;4.78;;;10.50;99.90;;;;;;4999809;28;90150;-33
2023/05/24 05:44:41;;;;;;;23.85;5.90;;;10.50;99.90;;;;;;5000850;28;89029;-36
2023/05/24 05:47:08;;;;;;;13.40;7.25;;;10.50;99.90;;;;;;5000510;28;90262;-31
2023/05/24 05:49:37;;;;;;;14.88;5.70;;;10.50;99.90;;;;;;4999873;28;89923;-35
2023/05/24 05:52:04;;;;;;;26.17;7.95;;;10.50;99.90;;;;;;4999571;28;89064;-30
2023/05/24 05:54:30;;;;;;;14.33;6.13;;;10.50;99.90;;;;;;4981620;28;89126;-34
2023/05/24 05:56:56;;;;;;;17.33;5.90;;;10.60;99.90;;;;;;5000422;28;91389;-33
2023/05/24 05:59:21;;;;;;;16.45;5.90;;;10.70;99.90;;;;;;4999459;28;89777;-31
2023/05/24 06:01:47;;;;;;;9.98;5.75;;;11.10;99.90;;;;;;5000309;28;89627;-31
2023/05/24 06:04:16;;;;;;;18.60;4.25;;;11.40;99.90;;;;;;4998785;28;90443;-33
2023/05/24 06:06:48;;;;;;;12.13;4.25;;;11.70;99.90;;;;;;4999717;28;90194;-31
2023/05/24 06:09:14;;;;;;;;;;;11.90;99.90;;;;;;4982538;28;89340;-31
2023/05/24 06:11:43;;;;;;;12.65;4.22;;;12.10;99.90;;;;;;5000663;28;89304;-34
2023/05/24 06:14:17;;;;;;;12.55;4.90;;;12.10;99.90;;;;;;5000148;28;89884;-35
2023/05/24 06:16:44;;;;;;;11.70;5.40;;;12.20;99.90;;;;;;4999042;28;90203;-31
2023/05/24 06:19:11;;;;;;;12.77;5.35;;;12.50;99.90;;;;;;4998569;28;90247;-35
2023/05/24 06:21:36;;;;;;;10.13;5.00;;;12.60;99.90;;;;;;4999495;28;89574;-35
2023/05/24 06:24:03;;;;;;;11.85;5.53;;;12.90;99.90;;;;;;5000199;28;89616;-30
2023/05/24 06:26:29;;;;;;;13.20;5.22;;;13.10;99.90;;;;;;4999247;28;89778;-31
2023/05/24 06:28:55;;;;;;;11.98;5.13;;;13.00;99.90;;;;;;4981257;28;90517;-32
2023/05/24 06:31:20;;;;;;;20.50;7.28;;;13.00;99.90;;;;;;4998578;28;90909;-30
2023/05/24 06:33:46;;;;;;;12.55;5.07;;;13.20;99.90;;;;;;4997015;28;88510;-33
2023/05/24 06:36:11;;;;;;;13.95;5.78;;;13.10;99.90;;;;;;4999481;28;88995;-34
2023/05/24 06:38:37;;;;;;;23.10;6.30;;;12.80;99.90;;;;;;4998977;28;90136;-35
2023/05/24 06:41:03;;;;;;;7.65;3.97;;;12.80;99.90;;;;;;4999088;28;89115;-34
2023/05/24 06:43:29;;;;;;;21.02;4.65;;;12.70;99.90;;;;;;4996753;28;88577;-34
2023/05/24 06:45:55;;;;;;;11.25;5.40;;;12.60;99.90;;;;;;4998401;28;89738;-31
2023/05/24 06:48:20;;;;;;;20.38;4.38;;;12.60;99.90;;;;;;4998780;28;89283;-31
2023/05/24 06:50:46;;;;;;;10.55;5.57;;;12.60;99.90;;;;;;4999154;28;88089;-35
2023/05/24 06:53:12;;;;;;;10.32;4.50;;;12.60;99.90;;;;;;4998333;28;89359;-32
2023/05/24 06:55:37;;;;;;;12.93;5.22;;;12.70;99.90;;;;;;4998787;28;90587;-31
2023/05/24 06:58:04;;;;;;;15.30;4.95;;;12.70;99.90;;;;;;4998959;28;89576;-33
2023/05/24 07:00:29;;;;;;;13.40;5.13;;;12.70;99.90;;;;;;4999135;28;88913;-33
2023/05/24 07:02:56;;;;;;;14.98;5.47;;;12.80;99.90;;;;;;4999453;28;87690;-31
2023/05/24 07:05:22;;;;;;;14.27;5.05;;;12.60;99.90;;;;;;4998978;28;89734;-30
2023/05/24 07:07:47;;;;;;;19.60;5.32;;;12.70;99.90;;;;;;4996154;28;89608;-35
2023/05/24 07:10:13;;;;;;;17.40;6.70;;;12.70;99.90;;;;;;4995491;28;89146;-32
2023/05/24 07:12:39;;;;;;;13.77;5.30;;;12.60;99.90;;;;;;4990258;28;88524;-33
2023/05/24 07:15:06;;;;;;;10.57;4.82;;;12.50;99.90;;;;;;5002441;28;90995;-31
2023/05/24 07:17:31;;;;;;;18.17;5.00;;;12.50;99.90;;;;;;4995511;28;90105;-33
2023/05/24 07:19:58;;;;;;;12.18;5.00;;;12.50;99.90;;;;;;4995871;28;89642;-33
2023/05/24 07:22:26;;;;;;;12.45;4.97;;;12.60;99.90;;;;;;4995663;28;89107;-34
2023/05/24 07:24:51;;;;;;;9.57;4.30;;;12.60;99.90;;;;;;4997458;28;90302;-33
2023/05/24 07:27:17;;;;;;;9.82;3.88;;;12.60;99.90;;;;;;4995955;28;89875;-34
2023/05/24 07:29:42;;;;;;;11.82;4.50;;;12.50;99.90;;;;;;4996055;28;88399;-36
2023/05/24 07:32:08;;;;;;;22.08;5.78;;;12.40;99.90;;;;;;4995984;28;89646;-32
2023/05/24 07:34:34;;;;;;;16.45;4.57;;;12.40;99.90;;;;;;4996330;28;90325;-35
2023/05/24 07:37:00;;;;;;;9.50;5.72;;;12.30;99.90;;;;;;4996916;28;89296;-33
2023/05/24 07:39:26;;;;;;;7.20;4.38;;;12.30;99.90;;;;;;4995851;28;89620;-34
2023/05/24 07:41:53;;;;;;;14.93;4.85;;;12.20;99.90;;;;;;4995742;28;90220;-37
2023/05/24 07:44:19;;;;;;;10.40;4.80;;;12.20;99.90;;;;;;4995738;28;90759;-32
2023/05/24 07:46:45;;;;;;;15.15;5.78;;;12.50;99.90;;;;;;4995689;28;89902;-30
2023/05/24 07:49:11;;;;;;;20.00;4.25;;;13.00;99.90;;;;;;4996597;28;90015;-32
2023/05/24 07:51:37;;;;;;;12.70;4.90;;;13.00;99.90;;;;;;4991932;28;88359;-34
2023/05/24 07:54:03;;;;;;;6.18;3.97;;;12.90;99.90;;;;;;4995176;28;90285;-33
2023/05/24 07:56:29;;;;;;;15.02;3.60;;;12.80;99.90;;;;;;4995928;28;89298;-31
2023/05/24 07:59:04;;;;;;;14.23;4.63;;;12.80;99.90;;;;;;5008004;27;89099;-32
2023/05/24 08:01:31;;;;;;;6.00;4.25;;;12.90;99.90;;;;;;5019637;28;88172;-33
2023/05/24 08:03:56;;;;;;;12.38;4.55;;;12.90;99.90;;;;;;5004780;28;91695;-32
2023/05/24 08:06:23;;;;;;;9.27;4.63;;;13.10;99.90;;;;;;4998185;28;90589;-31
2023/05/24 08:08:49;;;;;;;5.78;3.80;;;13.30;99.90;;;;;;4999802;28;90972;-31
2023/05/24 08:11:14;;;;;;;7.00;4.05;;;13.70;99.90;;;;;;4998814;28;89018;-31
2023/05/24 08:13:40;;;;;;;6.88;4.05;;;14.20;99.90;;;;;;4980743;28;90680;-36
2023/05/24 08:16:06;;;;;;;13.75;5.78;;;14.70;99.90;;;;;;4999753;28;91410;-34
2023/05/24 08:18:32;;;;;;;21.35;7.13;;;14.80;99.90;;;;;;4997382;28;88579;-32
2023/05/24 08:20:57;;;;;;;6.28;4.10;;;14.60;99.90;;;;;;4999492;28;89798;-30
2023/05/24 08:23:23;;;;;;;10.45;4.53;;;14.20;99.90;;;;;;4998555;28;90669;-32
2023/05/24 08:25:48;;;;;;;9.32;3.42;;;14.00;99.90;;;;;;4999949;28;88558;-31
2023/05/24 08:28:15;;;;;;;25.65;7.25;;;14.20;99.90;;;;;;4998404;28;89517;-32
2023/05/24 08:30:42;;;;;;;10.55;5.38;;;14.70;99.90;;;;;;4998791;28;88843;-34
2023/05/24 08:33:08;;;;;;;12.73;3.72;;;14.60;99.90;;;;;;4998771;28;90139;-34
2023/05/24 08:35:34;;;;;;;5.22;3.67;;;14.70;99.90;;;;;;4999123;28;90525;-31
2023/05/24 08:38:00;;;;;;;12.90;5.25;;;14.70;99.90;;;;;;4999041;28;89168;-35
2023/05/24 08:40:26;;;;;;;9.98;4.93;;;14.60;99.90;;;;;;4998831;28;89793;-33
2023/05/24 08:42:52;;;;;;;17.33;5.68;;;14.60;99.90;;;;;;4998573;28;90693;-34
2023/05/24 08:45:20;;;;;;;29.35;9.90;;;14.50;99.90;;;;;;4995863;28;95078;-32
2023/05/24 08:47:47;;;;;;;14.43;4.30;;;14.30;99.90;;;;;;4983930;28;94429;-35
2023/05/24 08:50:12;;;;;;;13.95;5.97;;;14.10;99.90;;;;;;4976642;28;94538;-31
2023/05/24 08:52:39;;;;;;;9.48;3.45;;;14.00;99.90;;;;;;4975306;28;95051;-32
2023/05/24 08:55:05;;;;;;;37.03;7.53;;;14.00;99.90;;;;;;4975828;28;95791;-31
2023/05/24 08:57:33;;;;;;;12.65;3.83;;;14.00;99.90;;;;;;4957485;28;97651;-35
2023/05/24 08:59:59;;;;;;;7.47;3.78;;;14.00;99.90;;;;;;4975575;28;92765;-31
2023/05/24 09:02:26;;;;;;;7.75;3.92;;;14.00;99.90;;;;;;4975350;28;92620;-35
2023/05/24 09:04:53;;;;;;;9.15;3.92;;;14.00;99.90;;;;;;4975951;28;96350;-34
2023/05/24 09:07:24;;;;;;;8.13;4.43;;;14.00;99.90;;;;;;4975572;28;93435;-34
2023/05/24 09:09:57;;;;;;;4.00;3.40;;;13.90;99.90;;;;;;4975769;28;93181;-30
2023/05/24 09:12:25;;;;;;;15.10;3.35;;;13.90;99.90;;;;;;4975376;28;93608;-29
2023/05/24 09:14:51;;;;;;;5.37;2.70;;;13.90;99.90;;;;;;4975877;28;94725;-31
2023/05/24 09:17:18;;;;;;;14.02;4.78;;;13.90;99.90;;;;;;4975157;28;94437;-36
2023/05/24 09:19:46;;;;;;;18.52;4.75;;;13.90;99.90;;;;;;4975776;28;93454;-34
2023/05/24 09:22:15;;;;;;;11.02;3.78;;;13.90;99.90;;;;;;4975329;28;93661;-34
2023/05/24 09:24:46;;;;;;;16.67;4.78;;;13.90;99.90;;;;;;4975064;28;94934;-34
2023/05/24 09:27:15;;;;;;;14.18;4.78;;;13.90;99.90;;;;;;4975488;28;94767;-35
2023/05/24 09:29:42;;;;;;;7.78;4.57;;;13.90;99.90;;;;;;4976386;28;94283;-31
2023/05/24 09:32:08;;;;;;;10.70;4.47;;;13.90;99.90;;;;;;4974486;28;93705;-31
2023/05/24 09:34:40;;;;;;;11.40;3.33;;;13.70;99.90;;;;;;4974450;28;94277;-33
2023/05/24 09:37:12;;;;;;;15.50;5.97;;;13.70;99.90;;;;;;4974808;28;94241;-36
2023/05/24 09:39:40;;;;;;;15.43;3.90;;;13.70;99.90;;;;;;4975817;28;95173;-30
2023/05/24 09:42:06;;;;;;;13.77;5.63;;;13.70;99.90;;;;;;4975124;28;93106;-36
2023/05/24 09:44:32;;;;;;;10.73;4.60;;;13.80;99.90;;;;;;4974947;28;96142;-34
2023/05/24 09:47:04;;;;;;;11.73;3.67;;;13.90;99.90;;;;;;4957195;28;97607;-31
2023/05/24 09:49:30;;;;;;;9.38;4.45;;;14.00;99.90;;;;;;4975607;28;92145;-32
2023/05/24 09:51:56;;;;;;;5.75;3.03;;;14.00;99.90;;;;;;4974987;28;92340;-30
2023/05/24 09:54:24;;;;;;;6.35;2.75;;;13.90;99.90;;;;;;4957148;28;94714;-34
2023/05/24 09:56:50;;;;;;;4.80;3.40;;;14.00;99.90;;;;;;4975569;28;93876;-35
2023/05/24 09:59:17;;;;;;;10.80;4.40;;;14.10;99.90;;;;;;4974981;28;95377;-33
2023/05/24 10:01:43;;;;;;;14.40;5.10;;;14.20;99.90;;;;;;4974758;28;94497;-33
2023/05/24 10:04:08;;;;;;;10.02;4.55;;;14.20;99.90;;;;;;4974708;28;94741;-32
2023/05/24 10:06:37;;;;;;;7.97;3.65;;;14.40;99.90;;;;;;4975321;28;94504;-32
2023/05/24 10:09:08;;;;;;;8.27;3.47;;;14.40;99.90;;;;;;4974843;28;93532;-33
2023/05/24 10:11:37;;;;;;;7.45;3.95;;;14.60;99.90;;;;;;4974343;28;92386;-33
2023/05/24 10:14:05;;;;;;;8.93;3.65;;;14.50;99.90;;;;;;4974441;28;94691;-31
2023/05/24 10:16:32;;;;;;;6.03;4.60;;;14.60;99.90;;;;;;4957008;28;96431;-33
2023/05/24 10:18:58;;;;;;;16.20;4.60;;;14.50;99.90;;;;;;4975652;28;92873;-30
2023/05/24 10:21:27;;;;;;;7.15;4.85;;;14.50;99.90;;;;;;4974027;28;94019;-32
2023/05/24 10:23:58;;;;;;;4.57;3.97;;;14.50;99.90;;;;;;4974259;28;94936;-31
2023/05/24 10:26:27;;;;;;;10.15;4.28;;;14.50;99.90;;;;;;4974944;28;93681;-31
2023/05/24 10:29:03;;;;;;;11.88;5.50;;;14.60;99.90;;;;;;4974803;28;93777;-32
2023/05/24 10:31:32;;;;;;;11.82;5.22;;;14.70;99.90;;;;;;4988912;28;94022;-32
2023/05/24 10:34:00;;;;;;;12.90;4.45;;;14.60;99.90;;;;;;5013041;28;94129;-33
2023/05/24 10:36:26;;;;;;;20.90;4.43;;;14.50;99.90;;;;;;5013888;28;96105;-32
2023/05/24 10:38:53;;;;;;;10.20;3.90;;;14.60;99.90;;;;;;5014845;28;92204;-33
2023/05/24 10:41:18;;;;;;;10.43;4.43;;;14.40;99.90;;;;;;5008611;28;92083;-33
2023/05/24 10:43:46;;;;;;;10.57;4.72;;;14.50;99.90;;;;;;4994861;28;94862;-30
2023/05/24 10:46:15;;;;;;;10.63;4.80;;;14.50;99.90;;;;;;4993765;28;94198;-33
2023/05/24 10:48:41;;;;;;;10.35;3.90;;;14.60;99.90;;;;;;4976053;28;92729;-33
2023/05/24 10:51:33;;;;;;;8.40;4.20;;;14.60;99.90;;;;;;4994021;28;93687;-31
2023/05/24 10:54:16;;;;;;;8.85;5.07;;;14.50;99.90;;;;;;4994215;28;94599;-33
2023/05/24 10:56:47;;;;;;;10.38;3.83;;;14.60;99.90;;;;;;4993708;28;94137;-31
2023/05/24 10:59:29;;;;;;;16.88;4.05;;;14.50;99.90;;;;;;4993058;28;94356;-32
2023/05/24 11:01:59;;;;;;;13.02;4.15;;;14.50;99.90;;;;;;4993082;28;94127;-33
2023/05/24 11:04:26;;;;;;;7.97;4.25;;;14.40;99.90;;;;;;4993941;28;95392;-31
2023/05/24 11:07:02;;;;;;;5.95;3.53;;;14.30;99.90;;;;;;4993392;28;93546;-32
2023/05/24 11:09:28;;;;;;;8.98;4.53;;;14.30;99.90;;;;;;4993621;28;93838;-35
2023/05/24 11:11:58;;;;;;;6.32;3.78;;;14.10;99.90;;;;;;4994754;28;93024;-31
2023/05/24 11:14:28;;;;;;;7.03;3.50;;;14.00;99.90;;;;;;4993691;28;93599;-33
2023/05/24 11:16:54;;;;;;;11.48;5.35;;;14.00;99.90;;;;;;4994103;28;94233;-31
2023/05/24 11:19:22;;;;;;;6.45;3.63;;;14.00;99.90;;;;;;4993367;28;92415;-34
2023/05/24 11:21:50;;;;;;;4.27;3.03;;;14.10;99.90;;;;;;4992977;28;94203;-34
2023/05/24 11:24:17;;;;;;;10.43;3.42;;;14.10;99.90;;;;;;4993402;28;95602;-31
2023/05/24 11:26:43;;;;;;;8.43;3.95;;;14.10;99.90;;;;;;4994270;28;94833;-30
2023/05/24 11:29:12;;;;;;;8.77;3.40;;;14.20;99.90;;;;;;4993410;28;93323;-32
2023/05/24 11:31:38;;;;;;;;;;;14.30;99.90;;;;;;4994164;28;93239;-32
2023/05/24 11:34:08;;;;;;;7.78;3.40;;;14.20;99.90;;;;;;4995335;28;95604;-35
2023/05/24 11:36:35;;;;;;;7.57;2.90;;;14.30;99.90;;;;;;4997629;28;94507;-34
2023/05/24 11:39:05;;;;;;;4.75;3.22;;;14.40;99.90;;;;;;4997563;28;93920;-33
2023/05/24 11:41:37;;;;;;;11.45;4.80;;;14.40;99.90;;;;;;4997843;28;92607;-31
2023/05/24 11:44:03;;;;;;;7.40;3.67;;;14.30;99.90;;;;;;4996932;28;95215;-33
2023/05/24 11:46:30;;;;;;;11.77;4.38;;;14.40;99.90;;;;;;4996890;28;94955;-34
2023/05/24 11:48:59;;;;;;;8.77;3.95;;;14.20;99.90;;;;;;4996111;28;93017;-34
2023/05/24 11:51:29;;;;;;;10.40;4.28;;;14.30;99.90;;;;;;4996591;28;92682;-31
2023/05/24 11:53:56;;;;;;;7.68;3.53;;;14.30;99.90;;;;;;4996667;28;95116;-34
2023/05/24 11:56:23;;;;;;;6.00;3.05;;;14.30;99.90;;;;;;4996588;28;94427;-36
2023/05/24 11:58:52;;;;;;;15.80;4.22;;;14.40;99.90;;;;;;4997299;28;92930;-32
2023/05/24 12:01:26;;;;;;;10.85;3.85;;;14.30;99.90;;;;;;4996488;28;93099;-35
2023/05/24 12:03:53;;;;;;;33.40;11.45;;;14.30;99.90;;;;;;4996298;28;94170;-34
2023/05/24 12:06:19;;;;;;;31.00;9.25;;;14.30;99.90;;;;;;4996658;28;94602;-32
2023/05/24 12:08:45;;;;;;;18.02;5.97;;;14.30;99.90;;;;;;4996751;28;92136;-32
2023/05/24 12:11:11;;;;;;;13.00;4.07;;;14.30;99.90;;;;;;4996749;28;92343;-32
2023/05/24 12:13:39;;;;;;;7.60;4.47;;;14.40;99.90;;;;;;4995738;28;95607;-31
2023/05/24 12:16:05;;;;;;;6.47;3.87;;;14.40;99.90;;;;;;4996236;28;94091;-34
2023/05/24 12:18:31;;;;;;;6.97;2.90;;;14.60;99.90;;;;;;4996349;28;93268;-32
2023/05/24 12:20:57;;;;;;;5.35;3.70;;;14.60;99.90;;;;;;4997344;28;94493;-32
2023/05/24 12:23:26;;;;;;;12.20;3.63;;;14.70;99.90;;;;;;4995655;28;94822;-32
2023/05/24 12:25:58;;;;;;;9.55;4.80;;;14.90;99.90;;;;;;4996205;28;94426;-32
2023/05/24 12:28:24;;;;;;;18.27;4.28;;;15.00;99.90;;;;;;4996774;28;92278;-31
2023/05/24 12:30:50;;;;;;;10.00;3.13;;;15.30;99.90;;;;;;4996510;28;93211;-31
2023/05/24 12:33:18;;;;;;;11.38;2.85;;;15.30;99.90;;;;;;4996015;28;94577;-31
2023/05/24 12:35:44;;;;;;;5.40;3.60;;;15.30;99.90;;;;;;4996084;28;94212;-35
2023/05/24 12:38:10;;;;;;;11.70;3.53;;;15.20;99.90;;;;;;4995535;28;94341;-32
2023/05/24 12:40:36;;;;;;;7.63;4.53;;;15.20;99.90;;;;;;4996606;28;93675;-31
2023/05/24 12:43:03;;;;;;;15.00;4.35;;;15.30;99.90;;;;;;4995724;28;94772;-32